createdAt,value
2022-12-23T08:06:55.999Z,12.20
2022-12-23T08:09:22.803Z,12.20
2022-12-23T08:11:49.647Z,12.20
2022-12-23T08:14:16.554Z,11.90
2022-12-23T08:16:44.146Z,11.60
2022-12-23T08:19:11.412Z,11.60
2022-12-23T08:21:38.279Z,11.70
2022-12-23T08:24:05.379Z,11.80
2022-12-23T12:01:26.065Z,12.40
2022-12-23T12:04:00.635Z,12.50
2022-12-23T12:06:28.475Z,12.50
2022-12-23T12:08:58.252Z,12.50
2022-12-23T12:11:48.326Z,12.60
2022-12-23T12:14:57.674Z,12.60
2022-12-23T12:17:32.693Z,12.60
2022-12-23T12:20:05.348Z,12.60
2022-12-23T12:22:41.124Z,12.50
2022-12-23T12:25:46.134Z,12.50
2022-12-23T12:28:28.097Z,12.40
2022-12-23T12:31:13.292Z,12.40
2022-12-23T12:34:01.658Z,12.40
2022-12-23T12:36:59.782Z,12.50
2022-12-23T12:39:38.401Z,12.50
2022-12-23T12:42:30.301Z,12.50
2022-12-23T12:45:14.369Z,12.50
2022-12-23T12:48:39.812Z,12.50
2022-12-23T12:51:15.962Z,12.50
2022-12-23T12:54:04.660Z,12.50
2022-12-23T12:56:48.162Z,12.60
2022-12-23T12:59:16.817Z,12.60
2022-12-23T13:02:02.707Z,12.50
2022-12-23T13:04:58.359Z,12.60
2022-12-23T13:07:50.235Z,12.60
2022-12-23T13:10:19.925Z,12.70
2022-12-23T13:13:14.557Z,12.70
2022-12-23T13:15:56.683Z,12.60
2022-12-23T13:18:50.320Z,12.60
2022-12-23T13:21:23.264Z,12.60
2022-12-23T13:24:11.855Z,12.70
2022-12-23T13:27:02.747Z,12.70
2022-12-23T13:29:38.899Z,12.70
2022-12-23T13:32:36.623Z,12.80
2022-12-23T13:35:15.768Z,12.80
2022-12-23T13:37:51.520Z,12.80
2022-12-23T13:40:37.548Z,12.70
2022-12-23T13:43:12.630Z,12.70
2022-12-23T13:45:41.547Z,12.80
2022-12-23T13:48:48.199Z,12.70
2022-12-23T13:51:30.977Z,12.80
2022-12-23T13:54:07.532Z,12.80
2022-12-23T21:09:49.919Z,13.30
2022-12-23T21:12:16.778Z,13.30
2022-12-23T21:14:43.692Z,13.30
2022-12-23T21:17:10.611Z,13.30
2022-12-23T21:19:37.668Z,13.20
2022-12-23T21:22:04.545Z,13.20
2022-12-23T21:24:31.394Z,13.20
2022-12-23T21:27:01.318Z,13.10
2022-12-23T21:29:28.224Z,13.20
2022-12-23T21:31:55.492Z,13.20
2022-12-23T21:34:25.470Z,13.10
2022-12-23T21:36:52.367Z,13.20
2022-12-23T21:39:19.894Z,13.20
2022-12-23T21:41:49.124Z,13.20
2022-12-23T21:44:16.080Z,12.90
2022-12-23T21:46:43.207Z,12.90
2022-12-23T21:49:10.733Z,12.90
2022-12-23T21:51:41.729Z,13.00
2022-12-23T21:54:12.750Z,13.10
2022-12-23T21:56:40.634Z,12.90
2022-12-23T21:59:14.751Z,12.80
2022-12-23T22:01:42.683Z,12.80
2022-12-23T22:04:09.915Z,12.80
2022-12-23T22:06:40.331Z,12.80
2022-12-23T22:09:07.987Z,12.90
2022-12-23T22:11:36.401Z,13.00
2022-12-23T22:14:04.844Z,12.90
2022-12-23T22:16:32.606Z,12.70
2022-12-23T22:19:00.918Z,12.80
2022-12-23T22:21:30.328Z,13.00
2022-12-23T22:23:57.521Z,13.00
2022-12-23T22:26:27.784Z,13.00
2022-12-23T22:28:56.229Z,13.10
2022-12-23T22:31:33.894Z,13.10
2022-12-23T22:34:00.876Z,13.10
2022-12-23T22:36:27.919Z,13.00
2022-12-23T22:38:57.039Z,13.10
2022-12-23T22:41:25.350Z,13.20
2022-12-23T22:43:52.201Z,13.10
2022-12-23T22:46:19.714Z,13.20
2022-12-23T22:48:46.688Z,13.20
2022-12-23T22:51:16.060Z,13.20
